MGMM

Mundo Maya International Airport

Airport
ICAO code
MGMM
IATA Code
FRS
Summary
ICAO Region
CARSAM
ICAO Territory
Location

Santa Elena, Peten Department

Serving
Flores
Elevation
387 ft
Coordinates
16° 54' 53" N , 89° 52' 38" W
KCC
Af
Metar
Observation
MGMM 110500Z 00000KT 9999 SCT020 BKN090 24/24 Q1017 A3003
Station
Melchor de Mencos Airport
Date/Time
2022-08-11 05:00:00
Wind direction
Wind speed
00 kts
Lowest cloud amount
scattered clouds
Temperature
24°C
Dew point
24°C
Humidity
100%
QNH
1017 hPa
Weather condition
n/a

Mundo Maya International Airport (Spanish: Aeropuerto Internacional Mundo Maya), formerly Flores International Airport, is an international airport located in the suburb of Santa Elena, in the city of Flores, Guatemala.

Climatology

Tropical rainforest climate (Köppen climate classification Af)

Airport map

Aerial View

SKYbrary Partners:

Safety knowledge contributed by: